Time;durP1;ratioP1;P1;durP2;ratioP2;P2;SDS_P1;SDS_P2;PMS_P1;PMS_P2;Temp;Humidity;BMP_temperature;BMP_pressure;BME280_temperature;BME280_humidity;BME280_pressure;Samples;Min_cycle;Max_cycle;Signal;HPM_P1;HPM_P2
2022/11/01 00:00:20;;;;;;;;;;;;;;;13.17;79.67;96874.41;30001;982;1882;-70
2022/11/01 00:00:50;;;;;;;;;;;;;;;13.17;79.60;96869.72;30001;983;1885;-58
2022/11/01 00:01:21;;;;;;;;;;;;;;;13.18;79.58;96871.34;30001;983;1868;-58
2022/11/01 00:01:52;;;;;;;;;;;;;;;13.18;79.38;96865.09;30001;983;1876;-58
2022/11/01 00:02:23;;;;;;;;;;;;;;;13.18;79.45;96865.91;30001;983;1881;-58
2022/11/01 00:02:54;;;;;;;;;;;;;;;13.18;79.37;96871.34;30001;983;1885;-69
2022/11/01 00:03:25;;;;;;;;;;;;;;;13.17;79.07;96853.37;30001;983;1881;-58
2022/11/01 00:03:56;;;;;;;;;;;;;;;13.17;79.29;96856.13;30001;987;1885;-58
2022/11/01 00:04:27;;;;;;;;;;;;;;;13.18;79.11;96865.09;30001;983;1881;-58
2022/11/01 00:04:58;;;;;;;;;;;;;;;13.17;78.97;96856.13;30001;982;1886;-58
2022/11/01 00:05:29;;;;;;;;;;;;;;;13.18;78.96;96855.00;30001;982;1881;-57
2022/11/01 00:06:00;;;;;;;;;;;;;;;13.18;79.25;96855.00;30001;982;1886;-58
2022/11/01 00:06:31;;;;;;;;;;;;;;;13.18;79.06;96857.72;30001;982;1868;-58
2022/11/01 00:07:02;;;;;;;;;;;;;;;13.20;79.41;96851.97;30002;813;1015;-58
2022/11/01 00:07:33;;;;;;;;;;;;;;;13.21;78.61;96859.84;30001;982;1881;-57
2022/11/01 00:08:04;;;;;;;;;;;;;;;13.22;78.65;96857.91;30001;982;1886;-57
2022/11/01 00:08:35;;;;;;;;;;;;;;;13.22;78.76;96856.00;30001;983;1881;-57
2022/11/01 00:09:06;;;;;;;;;;;;;;;13.24;78.38;96852.97;30001;983;1885;-57
2022/11/01 00:09:37;;;;;;;;;;;;;;;13.25;78.61;96855.38;30001;983;1881;-57
2022/11/01 00:10:10;;;;;;;;;;;;;;;13.26;78.34;96856.97;30001;983;1885;-57
2022/11/01 00:10:40;;;;;;;;;;;;;;;13.29;77.91;96850.12;30001;983;1881;-57
2022/11/01 00:11:13;;;;;;;;;;;;;;;13.30;78.00;96846.28;30001;983;1885;-58
2022/11/01 00:11:45;;;;;;;;;;;;;;;13.31;77.90;96854.13;30001;983;1868;-57
2022/11/01 00:12:15;;;;;;;;;;;;;;;13.31;77.67;96856.84;30001;983;1876;-58
2022/11/01 00:12:47;;;;;;;;;;;;;;;13.32;77.76;96853.03;30001;982;1881;-56
2022/11/01 00:13:19;;;;;;;;;;;;;;;13.33;77.46;96851.91;30001;982;1885;-57
2022/11/01 00:13:50;;;;;;;;;;;;;;;13.34;77.15;96848.06;30001;982;1881;-59
2022/11/01 00:14:21;;;;;;;;;;;;;;;13.35;77.51;96846.16;30001;982;1886;-58
2022/11/01 00:14:52;;;;;;;;;;;;;;;13.35;77.19;96851.59;30001;983;1881;-58
2022/11/01 00:15:23;;;;;;;;;;;;;;;13.37;77.07;96850.16;30001;987;1877;-58
2022/11/01 00:15:53;;;;;;;;;;;;;;;13.39;76.33;96850.66;30001;983;1885;-58
2022/11/01 00:16:25;;;;;;;;;;;;;;;13.41;76.24;96847.63;30001;983;1867;-68
2022/11/01 00:16:55;;;;;;;;;;;;;;;13.41;76.06;96848.44;30001;983;1876;-58
2022/11/01 00:17:26;;;;;;;;;;;;;;;13.41;76.12;96845.72;30001;983;1881;-58
2022/11/01 00:17:59;;;;;;;;;;;;;;;13.43;76.01;96844.59;30001;983;1885;-57
2022/11/01 00:18:30;;;;;;;;;;;;;;;13.43;75.99;96850.84;30001;983;1881;-58
2022/11/01 00:19:01;;;;;;;;;;;;;;;13.44;76.03;96848.94;30001;983;1886;-57
2022/11/01 00:19:31;;;;;;;;;;;;;;;13.46;75.69;96854.88;30001;983;1881;-58
2022/11/01 00:20:03;;;;;;;;;;;;;;;13.46;75.57;96852.94;30001;982;1886;-58
2022/11/01 00:20:34;;;;;;;;;;;;;;;13.48;75.52;96847.19;30001;982;1881;-58
2022/11/01 00:21:05;;;;;;;;;;;;;;;13.49;75.96;96848.81;30001;982;1857;-58
2022/11/01 00:21:36;;;;;;;;;;;;;;;13.49;75.72;96843.34;30001;982;1868;-57
2022/11/01 00:22:07;;;;;;;;;;;;;;;13.50;75.41;96844.97;30001;982;1877;-58
2022/11/01 00:22:38;;;;;;;;;;;;;;;13.50;75.23;96839.50;30001;983;1881;-58
2022/11/01 00:23:09;;;;;;;;;;;;;;;13.51;75.14;96847.38;30001;983;1885;-58
2022/11/01 00:23:40;;;;;;;;;;;;;;;13.52;75.13;96839.97;30001;983;1881;-57
2022/11/01 00:24:11;;;;;;;;;;;;;;;13.53;75.47;96830.69;30001;983;1885;-57
2022/11/01 00:24:42;;;;;;;;;;;;;;;13.53;75.36;96830.69;30001;983;1881;-58
2022/11/01 00:25:13;;;;;;;;;;;;;;;13.54;75.22;96841.28;30001;983;1885;-57
2022/11/01 00:25:44;;;;;;;;;;;;;;;13.54;74.66;96840.47;30001;983;1881;-58
2022/11/01 00:26:16;;;;;;;;;;;;;;;13.55;75.66;96840.16;30001;983;1885;-57
2022/11/01 00:26:47;;;;;;;;;;;;;;;13.57;75.43;96834.38;30001;983;1868;-58
2022/11/01 00:27:19;;;;;;;;;;;;;;;13.58;75.43;96834.06;30001;986;1877;-58
2022/11/01 00:27:49;;;;;;;;;;;;;;;13.58;75.42;96836.00;30001;982;1881;-58
2022/11/01 00:28:20;;;;;;;;;;;;;;;13.59;75.25;96840.34;30001;982;1885;-59
2022/11/01 00:28:51;;;;;;;;;;;;;;;13.59;75.54;96840.34;30001;982;1881;-57
2022/11/01 00:29:23;;;;;;;;;;;;;;;13.60;75.22;96844.66;30001;982;1886;-58
2022/11/01 00:29:53;;;;;;;;;;;;;;;13.59;75.36;96848.50;30001;982;1882;-58
2022/11/01 00:30:24;;;;;;;;;;;;;;;13.60;75.44;96844.66;30001;983;1885;-59
2022/11/01 00:30:56;;;;;;;;;;;;;;;13.60;75.36;96850.12;30001;983;1881;-58
2022/11/01 00:31:27;;;;;;;;;;;;;;;13.60;75.57;96850.12;30001;983;1885;-59
2022/11/01 00:31:59;;;;;;;;;;;;;;;13.60;75.34;96853.66;30001;983;1867;-57
2022/11/01 00:32:30;;;;;;;;;;;;;;;13.59;75.52;96849.31;30001;983;1877;-57
2022/11/01 00:33:01;;;;;;;;;;;;;;;13.60;75.39;96856.38;30001;983;1881;-58
2022/11/01 00:33:32;;;;;;;;;;;;;;;13.60;75.33;96850.94;30001;986;1885;-58
2022/11/01 00:34:04;;;;;;;;;;;;;;;13.60;75.28;96852.84;30001;983;1881;-58
2022/11/01 00:34:35;;;;;;;;;;;;;;;13.59;75.11;96853.97;30001;983;1885;-57
2022/11/01 00:35:07;;;;;;;;;;;;;;;13.59;75.35;96851.25;30001;982;1881;-59
2022/11/01 00:35:38;;;;;;;;;;;;;;;13.57;75.59;96848.81;30001;982;1885;-60
2022/11/01 00:36:09;;;;;;;;;;;;;;;13.57;75.50;96850.75;30001;982;1881;-58
2022/11/01 00:36:40;;;;;;;;;;;;;;;13.56;75.33;96840.97;30001;982;1886;-58
2022/11/01 00:37:11;;;;;;;;;;;;;;;13.55;75.65;96847.53;30001;982;1868;-58
2022/11/01 00:37:42;;;;;;;;;;;;;;;13.55;75.52;96842.06;30001;983;1876;-58
2022/11/01 00:38:13;;;;;;;;;;;;;;;13.54;76.06;96851.38;30001;983;1881;-58
2022/11/01 00:38:47;;;;;;;;;;;;;;;13.52;75.76;96846.22;30001;983;1885;-59
2022/11/01 00:39:22;;;;;;;;;;;;;;;13.51;75.95;96846.56;30001;983;1881;-58
2022/11/01 00:39:53;;;;;;;;;;;;;;;13.49;76.22;96855.06;30001;983;1885;-58
2022/11/01 00:40:25;;;;;;;;;;;;;;;13.47;76.64;96857.28;30001;983;1881;-58
2022/11/01 00:40:56;;;;;;;;;;;;;;;13.45;76.55;96847.81;30001;983;1885;-58
2022/11/01 00:41:27;;;;;;;;;;;;;;;13.42;76.80;96854.69;30001;983;1881;-58
2022/11/01 00:41:58;;;;;;;;;;;;;;;13.37;77.06;96852.91;30001;983;1886;-57
2022/11/01 00:42:29;;;;;;;;;;;;;;;13.34;77.39;96853.53;30001;983;1868;-58
2022/11/01 00:43:01;;;;;;;;;;;;;;;13.33;77.12;96854.63;30001;982;1877;-58
2022/11/01 00:43:33;;;;;;;;;;;;;;;13.32;77.47;96861.19;30001;982;1881;-58
2022/11/01 00:44:05;;;;;;;;;;;;;;;13.32;77.38;96858.47;30001;982;1886;-59
2022/11/01 00:44:36;;;;;;;;;;;;;;;13.31;77.47;96859.59;30001;982;1881;-58
2022/11/01 00:45:07;;;;;;;;;;;;;;;13.30;77.37;96863.44;30001;983;1885;-67
2022/11/01 00:45:38;;;;;;;;;;;;;;;13.29;77.58;96864.53;30001;983;1881;-58
2022/11/01 00:46:09;;;;;;;;;;;;;;;13.27;77.36;96866.78;30001;983;1885;-59
2022/11/01 00:46:40;;;;;;;;;;;;;;;13.26;77.70;96861.63;30001;983;1881;-59
2022/11/01 00:47:11;;;;;;;;;;;;;;;13.25;77.57;96862.75;30001;974;1905;-59
2022/11/01 00:47:42;;;;;;;;;;;;;;;13.22;77.64;96861.44;30001;983;1868;-60
2022/11/01 00:48:13;;;;;;;;;;;;;;;13.21;77.74;96851.66;30001;983;1877;-59
2022/11/01 00:48:44;;;;;;;;;;;;;;;13.23;77.55;96852.16;30001;983;1881;-58
2022/11/01 00:49:15;;;;;;;;;;;;;;;13.21;77.18;96859.84;30001;982;1885;-59
2022/11/01 00:49:46;;;;;;;;;;;;;;;13.22;77.72;96858.72;30001;982;1797;-57
2022/11/01 00:50:17;;;;;;;;;;;;;;;13.20;77.79;96855.50;30001;982;1885;-58
2022/11/01 00:50:48;;;;;;;;;;;;;;;13.20;78.04;96857.41;30001;982;1881;-58
2022/11/01 00:51:19;;;;;;;;;;;;;;;13.18;77.56;96855.00;30001;982;1886;-59
2022/11/01 00:51:51;;;;;;;;;;;;;;;13.18;78.25;96856.91;30001;982;1881;-60
2022/11/01 00:52:21;;;;;;;;;;;;;;;13.17;77.81;96853.37;30001;982;1886;-58
2022/11/01 00:52:52;;;;;;;;;;;;;;;13.18;77.90;96851.47;30001;983;1867;-58
2022/11/01 00:53:23;;;;;;;;;;;;;;;13.16;77.90;96840.91;30001;983;1876;-58
2022/11/01 00:53:58;;;;;;;;;;;;;;;13.14;78.12;96854.00;30001;983;1881;-58
2022/11/01 00:54:29;;;;;;;;;;;;;;;13.13;78.38;96852.41;30001;983;1885;-58
2022/11/01 00:55:00;;;;;;;;;;;;;;;13.12;78.41;96852.69;30001;983;1881;-59
2022/11/01 00:55:31;;;;;;;;;;;;;;;13.11;78.31;96854.63;30001;983;1872;-58
2022/11/01 00:56:04;;;;;;;;;;;;;;;13.09;78.32;96846.75;30001;983;1859;-58
2022/11/01 00:56:35;;;;;;;;;;;;;;;13.09;78.08;96851.41;30001;983;1885;-58
2022/11/01 00:57:06;;;;;;;;;;;;;;;13.09;78.54;96851.41;30001;982;1881;-59
2022/11/01 00:57:37;;;;;;;;;;;;;;;13.07;78.68;96853.63;30001;982;1886;-59
2022/11/01 00:58:08;;;;;;;;;;;;;;;13.02;79.04;96854.56;30001;982;1881;-69
2022/11/01 00:58:38;;;;;;;;;;;;;;;13.01;79.18;96852.13;30001;982;1886;-58
2022/11/01 00:59:09;;;;;;;;;;;;;;;13.00;79.11;96855.97;30001;982;1881;-60
2022/11/01 00:59:40;;;;;;;;;;;;;;;13.00;78.78;96858.69;30001;982;1886;-58
2022/11/01 01:00:12;;;;;;;;;;;;;;;12.99;79.04;96852.44;30001;983;1880;-59
2022/11/01 01:00:43;;;;;;;;;;;;;;;13.00;79.35;96855.97;30001;983;1872;-59
2022/11/01 01:01:14;;;;;;;;;;;;;;;13.01;79.06;96854.84;30001;983;1872;-62
2022/11/01 01:01:45;;;;;;;;;;;;;;;13.00;79.16;96853.25;30001;983;1885;-59
2022/11/01 01:02:16;;;;;;;;;;;;;;;12.98;78.93;96850.84;30001;983;1868;-58
2022/11/01 01:02:46;;;;;;;;;;;;;;;12.99;79.03;96851.63;30001;983;1863;-68
2022/11/01 01:03:17;;;;;;;;;;;;;;;12.96;79.38;96852.25;30001;983;1881;-58
2022/11/01 01:03:48;;;;;;;;;;;;;;;12.95;79.39;96845.19;30001;983;1885;-59
2022/11/01 01:04:19;;;;;;;;;;;;;;;12.94;79.31;96849.84;30001;982;1881;-59
2022/11/01 01:04:50;;;;;;;;;;;;;;;12.94;79.37;96851.75;30001;985;1885;-59
2022/11/01 01:05:21;;;;;;;;;;;;;;;12.94;79.55;96851.75;30001;982;1881;-58
2022/11/01 01:05:54;;;;;;;;;;;;;;;12.93;79.14;96847.41;30001;982;1886;-59
2022/11/01 01:06:25;;;;;;;;;;;;;;;12.94;79.20;96854.47;30001;982;1868;-59
2022/11/01 01:06:56;;;;;;;;;;;;;;;12.91;79.63;96855.91;30001;982;1877;-58
2022/11/01 01:07:26;;;;;;;;;;;;;;;12.90;79.69;96853.47;30001;982;1882;-60
2022/11/01 01:07:57;;;;;;;;;;;;;;;12.91;79.65;96855.09;30001;983;1885;-58
2022/11/01 01:08:28;;;;;;;;;;;;;;;12.90;79.73;96853.47;30001;983;1881;-59
2022/11/01 01:09:00;;;;;;;;;;;;;;;12.90;79.71;96853.47;30001;983;1885;-58
2022/11/01 01:09:31;;;;;;;;;;;;;;;12.87;80.19;96852.19;30001;983;1881;-59
2022/11/01 01:10:02;;;;;;;;;;;;;;;12.87;79.82;96856.81;30001;983;1885;-57
2022/11/01 01:10:33;;;;;;;;;;;;;;;12.86;79.87;96855.22;30001;983;1868;-58
2022/11/01 01:11:04;;;;;;;;;;;;;;;12.85;79.85;96853.59;30001;983;1877;-58
2022/11/01 01:11:35;;;;;;;;;;;;;;;12.85;79.84;96853.59;30001;983;1881;-58
2022/11/01 01:12:06;;;;;;;;;;;;;;;12.84;79.68;96855.50;30001;982;1872;-58
2022/11/01 01:12:37;;;;;;;;;;;;;;;12.86;79.86;96852.50;30001;982;1872;-59
2022/11/01 01:13:08;;;;;;;;;;;;;;;12.86;79.78;96852.50;30001;982;1886;-60
2022/11/01 01:13:39;;;;;;;;;;;;;;;12.85;80.05;96850.88;30001;982;1881;-58
2022/11/01 01:14:10;;;;;;;;;;;;;;;12.84;79.85;96852.78;30001;982;1886;-58
2022/11/01 01:14:41;;;;;;;;;;;;;;;12.83;79.82;96850.38;30001;982;1881;-58
2022/11/01 01:15:12;;;;;;;;;;;;;;;12.83;79.90;96853.09;30001;983;1885;-58
2022/11/01 01:15:44;;;;;;;;;;;;;;;12.82;80.04;96846.84;30001;983;1880;-58
2022/11/01 01:16:15;;;;;;;;;;;;;;;12.84;79.93;96852.78;30001;983;1885;-59
2022/11/01 01:16:47;;;;;;;;;;;;;;;12.85;79.50;96857.12;30001;983;1868;-58
2022/11/01 01:17:18;;;;;;;;;;;;;;;12.86;79.65;96853.28;30001;983;1877;-59
2022/11/01 01:17:48;;;;;;;;;;;;;;;12.86;79.51;96855.22;30001;983;1868;-57
2022/11/01 01:18:19;;;;;;;;;;;;;;;12.85;79.29;96850.88;30001;983;1877;-58
2022/11/01 01:18:51;;;;;;;;;;;;;;;12.84;79.55;96844.63;30001;983;1881;-59
2022/11/01 01:19:22;;;;;;;;;;;;;;;12.84;79.51;96846.53;30001;983;1885;-57
2022/11/01 01:19:53;;;;;;;;;;;;;;;12.84;79.62;96850.06;30001;982;1881;-58
2022/11/01 01:20:24;;;;;;;;;;;;;;;12.84;79.40;96854.72;30001;982;1885;-67
2022/11/01 01:21:02;;;;;;;;;;;;;;;12.82;80.08;96841.41;30001;982;1881;-57
2022/11/01 01:21:33;;;;;;;;;;;;;;;12.82;79.67;96846.06;30001;982;1873;-57
2022/11/01 01:22:03;;;;;;;;;;;;;;;12.81;79.66;96844.47;30001;983;1872;-56
2022/11/01 01:22:34;;;;;;;;;;;;;;;12.80;79.85;96843.66;30001;983;1872;-56
2022/11/01 01:23:05;;;;;;;;;;;;;;;12.81;79.69;96841.75;30001;983;1872;-58
2022/11/01 01:23:36;;;;;;;;;;;;;;;12.80;79.85;96842.84;30001;983;1885;-58
2022/11/01 01:24:07;;;;;;;;;;;;;;;12.80;79.75;96842.84;30001;983;1881;-57
2022/11/01 01:24:44;;;;;;;;;;;;;;;12.79;79.86;96842.03;30001;983;1885;-57
2022/11/01 01:25:16;;;;;;;;;;;;;;;12.79;79.74;96844.78;30001;983;1881;-58
2022/11/01 01:25:47;;;;;;;;;;;;;;;12.81;79.54;96849.91;30001;983;1885;-71
2022/11/01 01:26:18;;;;;;;;;;;;;;;12.79;79.77;96842.03;30001;983;1881;-58
2022/11/01 01:26:49;;;;;;;;;;;;;;;12.81;79.65;96844.47;30001;983;1886;-57
2022/11/01 01:27:20;;;;;;;;;;;;;;;12.80;79.74;96849.09;30001;982;1881;-59
2022/11/01 01:27:50;;;;;;;;;;;;;;;12.81;79.65;96844.47;30001;982;1873;-56
2022/11/01 01:28:21;;;;;;;;;;;;;;;12.80;79.66;96843.66;30001;982;1873;-59
2022/11/01 01:28:53;;;;;;;;;;;;;;;12.83;79.55;96848.47;30001;982;1886;-57
2022/11/01 01:29:24;;;;;;;;;;;;;;;12.83;79.54;96843.00;30001;982;1881;-57
2022/11/01 01:29:55;;;;;;;;;;;;;;;12.83;79.43;96844.94;30001;983;1885;-56
2022/11/01 01:30:26;;;;;;;;;;;;;;;12.82;79.49;96846.84;30001;983;1881;-57
2022/11/01 01:30:57;;;;;;;;;;;;;;;12.82;79.51;96846.06;30001;983;1885;-58
2022/11/01 01:31:28;;;;;;;;;;;;;;;12.81;79.97;96839.81;30001;983;1881;-58
2022/11/01 01:32:02;;;;;;;;;;;;;;;12.81;79.42;96839.81;30001;983;1885;-58
2022/11/01 01:32:33;;;;;;;;;;;;;;;12.83;79.32;96842.22;30001;983;1881;-57
2022/11/01 01:33:04;;;;;;;;;;;;;;;12.83;79.46;96831.31;30001;983;1872;-59
2022/11/01 01:33:35;;;;;;;;;;;;;;;12.84;79.23;96827.47;30001;983;1872;-57
2022/11/01 01:34:06;;;;;;;;;;;;;;;12.85;79.07;96834.53;30001;983;1886;-76
2022/11/01 01:34:37;;;;;;;;;;;;;;;12.88;78.60;96834.72;30001;982;1881;-56
2022/11/01 01:35:09;;;;;;;;;;;;;;;12.94;77.73;96832.69;30001;982;1886;-56
2022/11/01 01:35:39;;;;;;;;;;;;;;;12.97;77.56;96837.53;30001;982;1881;-57
2022/11/01 01:36:10;;;;;;;;;;;;;;;12.99;77.47;96835.31;30001;982;1885;-57
2022/11/01 01:36:41;;;;;;;;;;;;;;;13.00;77.62;96840.44;30001;982;1882;-57
2022/11/01 01:37:14;;;;;;;;;;;;;;;13.03;77.58;96836.28;30001;983;1885;-57
2022/11/01 01:37:44;;;;;;;;;;;;;;;13.04;77.39;96844.16;30001;983;1881;-57
2022/11/01 01:38:15;;;;;;;;;;;;;;;13.05;77.71;96840.31;30001;983;1872;-57
2022/11/01 01:38:46;;;;;;;;;;;;;;;13.07;77.33;96842.72;30001;983;1872;-72
2022/11/01 01:39:18;;;;;;;;;;;;;;;13.09;77.25;96845.97;30001;983;1885;-57
2022/11/01 01:39:49;;;;;;;;;;;;;;;13.10;77.46;96836.66;30001;983;1881;-57
2022/11/01 01:40:20;;;;;;;;;;;;;;;13.12;77.65;96844.53;30001;983;1869;-57
2022/11/01 01:40:51;;;;;;;;;;;;;;;13.14;76.88;96842.31;30001;983;1881;-58
2022/11/01 01:42:36;;;;;;;;;;;;;;;13.15;77.11;96839.28;30001;982;1881;-58
2022/11/01 01:43:11;;;;;;;;;;;;;;;13.16;76.88;96840.91;30001;982;1864;-57
2022/11/01 01:43:43;;;;;;;;;;;;;;;13.16;76.99;96835.47;30001;982;1855;-57
2022/11/01 01:44:31;;;;;;;;;;;;;;;13.14;76.81;96837.66;30001;982;1881;-58
2022/11/01 01:45:25;;;;;;;;;;;;;;;13.16;76.65;96834.66;30001;968;1883;-58
2022/11/01 01:45:56;;;;;;;;;;;;;;;13.15;77.11;96838.47;30001;983;1876;-57
2022/11/01 01:46:27;;;;;;;;;;;;;;;13.16;77.14;96835.47;30001;983;1877;-58
2022/11/01 01:46:58;;;;;;;;;;;;;;;13.16;77.14;96837.37;30001;983;1881;-70
2022/11/01 01:47:41;;;;;;;;;;;;;;;13.15;76.84;96833.81;30001;983;1877;-57
2022/11/01 01:48:14;;;;;;;;;;;;;;;13.15;76.59;96836.53;30001;983;1881;-57
2022/11/01 01:48:48;;;;;;;;;;;;;;;13.14;76.90;96826.75;30001;983;1864;-57
2022/11/01 01:49:19;;;;;;;;;;;;;;;13.15;77.26;96836.53;30001;982;1872;-57
2022/11/01 01:50:09;;;;;;;;;;;;;;;13.14;77.66;96837.66;30001;982;1877;-57
2022/11/01 01:50:53;;;;;;;;;;;;;;;13.14;77.18;96832.22;30001;982;1872;-58
2022/11/01 01:51:25;;;;;;;;;;;;;;;13.12;77.67;96839.88;30001;982;1877;-57
2022/11/01 01:51:56;;;;;;;;;;;;;;;13.12;77.48;96834.44;30001;982;1882;-57
2022/11/01 01:52:29;;;;;;;;;;;;;;;13.12;77.71;96837.16;30001;983;1876;-57
2022/11/01 01:53:04;;;;;;;;;;;;;;;13.12;77.13;96839.88;30001;983;1881;-58
2022/11/01 01:53:40;;;;;;;;;;;;;;;13.10;77.24;96825.78;30001;983;1876;-58
2022/11/01 01:54:11;;;;;;;;;;;;;;;13.11;77.37;96837.47;30001;983;1868;-57
2022/11/01 01:54:42;;;;;;;;;;;;;;;13.10;77.17;96825.78;30001;968;1883;-57
2022/11/01 01:55:15;;;;;;;;;;;;;;;13.09;77.25;96832.34;30001;983;1881;-58
2022/11/01 01:55:55;;;;;;;;;;;;;;;13.07;77.34;96831.84;30001;983;1877;-60
2022/11/01 01:56:29;;;;;;;;;;;;;;;13.07;77.28;96827.19;30001;982;1881;-58
2022/11/01 01:57:00;;;;;;;;;;;;;;;13.06;77.09;96830.22;30001;982;1877;-57
2022/11/01 01:57:31;;;;;;;;;;;;;;;13.06;77.18;96827.50;30001;982;1881;-58
2022/11/01 01:58:03;;;;;;;;;;;;;;;13.07;77.13;96834.56;30001;982;1877;-58
2022/11/01 01:58:38;;;;;;;;;;;;;;;13.06;77.09;96825.59;30001;982;1881;-58
2022/11/01 01:59:09;;;;;;;;;;;;;;;13.06;76.95;96828.31;30001;983;1863;-57
2022/11/01 01:59:40;;;;;;;;;;;;;;;13.06;77.22;96830.22;30001;983;1872;-69
2022/11/01 02:00:12;;;;;;;;;;;;;;;13.06;77.17;96830.22;30001;983;1876;-57
2022/11/01 02:00:43;;;;;;;;;;;;;;;13.06;77.00;96824.78;30001;983;1881;-58
2022/11/01 02:01:14;;;;;;;;;;;;;;;13.06;77.57;96830.22;30001;983;1877;-57
2022/11/01 02:01:45;;;;;;;;;;;;;;;13.05;77.10;96831.34;30001;983;1881;-57
2022/11/01 02:02:16;;;;;;;;;;;;;;;13.06;76.97;96835.69;30001;983;1858;-58
2022/11/01 02:02:49;;;;;;;;;;;;;;;13.07;77.03;96837.28;30001;983;1881;-58
2022/11/01 02:03:22;;;;;;;;;;;;;;;13.08;76.81;96838.91;30001;983;1864;-58
2022/11/01 02:03:53;;;;;;;;;;;;;;;13.08;76.55;96839.69;30001;982;1873;-58
2022/11/01 02:04:27;;;;;;;;;;;;;;;13.10;76.74;96842.12;30001;982;1877;-58
2022/11/01 02:04:59;;;;;;;;;;;;;;;13.09;76.24;96845.97;30001;982;1881;-58
2022/11/01 02:05:36;;;;;;;;;;;;;;;13.10;76.83;96842.12;30001;982;1877;-70
2022/11/01 02:06:11;;;;;;;;;;;;;;;13.09;76.21;96845.97;30001;982;1882;-68
2022/11/01 02:06:43;;;;;;;;;;;;;;;13.11;76.37;96842.91;30001;983;1876;-59
2022/11/01 02:07:14;;;;;;;;;;;;;;;13.13;76.10;96841.50;30001;983;1881;-58
2022/11/01 02:07:45;;;;;;;;;;;;;;;13.13;75.90;96849.66;30001;983;1876;-69
2022/11/01 02:08:25;;;;;;;;;;;;;;;13.12;75.93;96845.34;30001;983;1868;-58
2022/11/01 02:08:58;;;;;;;;;;;;;;;13.13;75.92;96846.16;30001;983;1855;-60
2022/11/01 02:09:29;;;;;;;;;;;;;;;13.16;75.41;96846.37;30001;983;1881;-58
2022/11/01 02:10:00;;;;;;;;;;;;;;;13.20;75.41;96851.97;30001;983;1877;-59
2022/11/01 02:10:31;;;;;;;;;;;;;;;13.21;75.29;96840.75;30001;983;1881;-58
2022/11/01 02:11:04;;;;;;;;;;;;;;;13.21;75.48;96842.69;30001;983;1877;-60
2022/11/01 02:11:35;;;;;;;;;;;;;;;13.23;75.22;96840.44;30001;982;1881;-58
2022/11/01 02:12:06;;;;;;;;;;;;;;;13.23;75.60;96840.44;30001;982;1877;-60
2022/11/01 02:12:37;;;;;;;;;;;;;;;13.26;74.76;96837.91;30001;982;1881;-64
2022/11/01 02:13:12;;;;;;;;;;;;;;;13.31;74.42;96848.69;30001;982;1877;-58
2022/11/01 02:13:43;;;;;;;;;;;;;;;13.31;74.57;96843.25;30001;982;1868;-57
2022/11/01 02:14:15;;;;;;;;;;;;;;;13.34;74.27;96839.88;30001;983;1854;-58
2022/11/01 02:14:47;;;;;;;;;;;;;;;13.37;74.21;96846.63;30001;983;1881;-58
2022/11/01 02:15:21;;;;;;;;;;;;;;;13.43;73.65;96850.03;30001;983;1876;-59
2022/11/01 02:15:58;;;;;;;;;;;;;;;13.41;73.47;96842.97;30001;983;1881;-60
2022/11/01 02:16:55;;;;;;;;;;;;;;;13.40;73.26;96841.38;30001;983;1863;-58
2022/11/01 02:17:48;;;;;;;;;;;;;;;13.39;73.51;96842.50;30001;983;1868;-60
2022/11/01 02:18:35;;;;;;;;;;;;;;;13.40;73.50;96841.38;30001;983;1872;-58
2022/11/01 02:19:34;;;;;;;;;;;;;;;13.41;73.49;96844.91;30001;982;1868;-69
2022/11/01 02:20:23;;;;;;;;;;;;;;;13.39;73.44;96834.31;30001;982;1864;-60
2022/11/01 02:21:18;;;;;;;;;;;;;;;13.39;73.27;96836.22;30001;982;1882;-58
2022/11/01 02:22:08;;;;;;;;;;;;;;;13.34;73.76;96831.72;30001;983;1872;-60
2022/11/01 02:23:05;;;;;;;;;;;;;;;13.34;73.59;96837.16;30001;983;1876;-57
2022/11/01 02:24:05;;;;;;;;;;;;;;;13.33;74.09;96837.47;30001;983;1859;-58
2022/11/01 02:24:52;;;;;;;;;;;;;;;13.31;74.10;96837.78;30001;983;1868;-67
2022/11/01 02:25:49;;;;;;;;;;;;;;;13.27;74.14;96836.78;30001;983;1863;-58
2022/11/01 02:26:52;;;;;;;;;;;;;;;13.26;74.48;96839.84;30001;982;1855;-58
2022/11/01 02:27:39;;;;;;;;;;;;;;;13.23;74.53;96835.81;30001;982;1872;-59
2022/11/01 02:28:28;;;;;;;;;;;;;;;13.21;74.54;96838.03;30001;982;1868;-57
2022/11/01 02:29:27;;;;;;;;;;;;;;;13.22;74.13;96841.56;30001;982;1860;-59
2022/11/01 02:30:24;;;;;;;;;;;;;;;13.21;74.44;96838.03;30001;983;1881;-59
2022/11/01 02:31:13;;;;;;;;;;;;;;;13.22;74.69;96845.09;30001;983;1872;-58
2022/11/01 02:32:06;;;;;;;;;;;;;;;13.22;74.54;96839.66;30001;983;1872;-59
2022/11/01 02:32:39;;;;;;;;;;;;;;;13.22;74.58;96847.81;30001;983;1863;-58
2022/11/01 02:33:24;;;;;;;;;;;;;;;13.21;74.69;96837.22;30001;983;1872;-58
2022/11/01 02:34:01;;;;;;;;;;;;;;;13.24;74.67;96837.41;30001;982;1877;-59
2022/11/01 02:34:37;;;;;;;;;;;;;;;13.25;73.99;96833.56;30001;982;1881;-66
2022/11/01 02:35:17;;;;;;;;;;;;;;;13.26;74.17;96832.47;30001;982;1877;-60
2022/11/01 02:36:13;;;;;;;;;;;;;;;13.31;73.52;96832.34;30001;982;1881;-60
2022/11/01 02:36:47;;;;;;;;;;;;;;;13.32;73.76;96833.94;30001;983;1872;-58
2022/11/01 02:37:27;;;;;;;;;;;;;;;13.33;73.66;96838.28;30001;983;1881;-59
2022/11/01 02:38:21;;;;;;;;;;;;;;;13.36;73.32;96839.59;30001;983;1863;-64
2022/11/01 02:38:57;;;;;;;;;;;;;;;13.36;73.37;96834.94;30001;983;1872;-57
2022/11/01 02:39:31;;;;;;;;;;;;;;;13.35;73.46;96833.31;30001;983;1877;-58
2022/11/01 02:40:08;;;;;;;;;;;;;;;13.34;73.50;96837.16;30001;983;1881;-59
2022/11/01 02:40:51;;;;;;;;;;;;;;;13.36;73.49;96834.94;30001;983;1877;-59
2022/11/01 02:41:24;;;;;;;;;;;;;;;13.34;73.36;96834.44;30001;982;1881;-58
2022/11/01 02:42:08;;;;;;;;;;;;;;;13.32;73.38;96839.41;30001;982;1864;-58
2022/11/01 02:42:42;;;;;;;;;;;;;;;13.30;73.52;96829.91;30001;982;1859;-58
2022/11/01 02:43:24;;;;;;;;;;;;;;;13.29;73.70;96828.31;30001;982;1877;-59
2022/11/01 02:44:11;;;;;;;;;;;;;;;13.28;73.91;96837.59;30001;982;1868;-58
2022/11/01 02:44:44;;;;;;;;;;;;;;;13.27;73.75;96842.25;30001;983;1867;-58
2022/11/01 02:45:28;;;;;;;;;;;;;;;13.25;74.11;96838.22;30001;983;1855;-59
2022/11/01 02:46:59;;;;;;;;;;;;;;;13.27;73.77;96841.44;30001;983;1863;-58
2022/11/01 02:47:00;;;;;;;;;;;;;;;13.27;73.69;96842.25;30001;983;1872;-59
2022/11/01 02:47:31;;;;;;;;;;;;;;;13.28;73.68;96849.31;30001;983;1876;-58
2022/11/01 02:48:04;;;;;;;;;;;;;;;13.28;73.55;96849.31;30001;983;1849;-58
2022/11/01 02:48:35;;;;;;;;;;;;;;;13.29;73.63;96852.84;30001;982;1877;-59
2022/11/01 02:49:09;;;;;;;;;;;;;;;13.27;73.61;96850.41;30001;982;1881;-58
2022/11/01 02:49:46;;;;;;;;;;;;;;;13.29;73.99;96853.63;30001;982;1877;-68
2022/11/01 02:50:18;;;;;;;;;;;;;;;13.29;73.75;96845.47;30001;982;1882;-57
2022/11/01 02:50:54;;;;;;;;;;;;;;;13.31;72.88;96848.69;30001;982;1877;-60
2022/11/01 02:51:27;;;;;;;;;;;;;;;13.36;72.98;96847.75;30001;983;1868;-58
2022/11/01 02:51:58;;;;;;;;;;;;;;;13.37;72.66;96854.81;30001;983;1868;-58
2022/11/01 02:52:31;;;;;;;;;;;;;;;13.37;72.80;96855.63;30001;983;1880;-68
2022/11/01 02:53:03;;;;;;;;;;;;;;;13.38;72.80;96856.44;30001;983;1876;-58
2022/11/01 02:53:34;;;;;;;;;;;;;;;13.39;72.55;96861.56;30001;983;1881;-65
2022/11/01 02:54:11;;;;;;;;;;;;;;;13.45;72.00;96858.72;30001;983;1877;-67
2022/11/01 02:54:44;;;;;;;;;;;;;;;13.48;72.15;96869.00;30001;983;1881;-58
2022/11/01 02:55:28;;;;;;;;;;;;;;;13.49;72.09;96859.72;30001;983;1877;-69
2022/11/01 02:55:59;;;;;;;;;;;;;;;13.49;72.41;96859.72;30001;982;1881;-66
2022/11/01 02:56:30;;;;;;;;;;;;;;;13.55;71.46;96864.69;30001;985;1864;-68
2022/11/01 02:57:07;;;;;;;;;;;;;;;13.56;71.90;96866.31;30001;982;1872;-59
2022/11/01 02:57:39;;;;;;;;;;;;;;;13.60;71.64;96861.03;30001;982;1877;-58
2022/11/01 02:58:22;;;;;;;;;;;;;;;13.63;71.37;96869.37;30001;982;1794;-69
2022/11/01 02:58:53;;;;;;;;;;;;;;;13.61;72.27;96868.09;30001;983;1876;-58
2022/11/01 02:59:27;;;;;;;;;;;;;;;13.61;71.91;96865.38;30001;983;1880;-56
2022/11/01 03:00:03;;;;;;;;;;;;;;;13.57;71.95;96857.00;30001;983;1876;-57
2022/11/01 03:00:35;;;;;;;;;;;;;;;13.57;71.64;96861.66;30001;983;1880;-58
2022/11/01 03:01:14;;;;;;;;;;;;;;;13.60;71.46;96855.56;30001;983;1876;-58
2022/11/01 03:01:52;;;;;;;;;;;;;;;13.68;71.01;96855.63;30001;983;1868;-63
2022/11/01 03:02:39;;;;;;;;;;;;;;;13.77;70.41;96850.22;30001;983;1868;-59